EGBB

Birmingham International Airport

Birmingham, United Kingdom
METAR EGBB 220620Z 16008KT CAVOK 14/12 Q1008
Observed Flight Rules
Apr-22 @ 06:20 UTC (29 minutes ago) Visual Flight Rules
Wind Visibility Clouds
160° at 8 knots 10,000+ meters
  • Clear skies
Temperatures Readings
Current 14°C / 57°F
Dewpoint 12°C / 54°F
Humidity 88%
Altimeter 29.76" Hg
Pressure 1008 hPa
Elevation 99
METAR EGBB 220620Z 16008KT CAVOK 14/12 Q1008
Observed Flight Rules
Apr-22 @ 06:20 UTC
(29 minutes ago)
VFR
Wind Visibility
160° at 8 knots 10,000+ meters
Clouds
  • Clear skies
Temperature Dewpoint
14°C / 57°F 12°C / 54°F
Humidity Altimeter Pressure
88% 29.76" Hg 1008 hPa